sensor_id;sensor_type;location;lat;lon;timestamp;pressure;altitude;pressure_sealevel;temperature;humidity
22181;BME280;11256;50.830;12.834;2023-07-31T00:04:40;97382.97;;;18.61;54.39
22181;BME280;11256;50.830;12.834;2023-07-31T00:09:40;97388.69;;;18.56;54.34
22181;BME280;11256;50.830;12.834;2023-07-31T00:14:41;97382.94;;;18.49;54.45
22181;BME280;11256;50.830;12.834;2023-07-31T00:19:41;97379.75;;;18.47;54.74
22181;BME280;11256;50.830;12.834;2023-07-31T00:24:42;97374.81;;;18.40;54.50
22181;BME280;11256;50.830;12.834;2023-07-31T00:29:42;97373.53;;;18.38;54.86
22181;BME280;11256;50.830;12.834;2023-07-31T00:34:42;97358.88;;;18.34;54.97
22181;BME280;11256;50.830;12.834;2023-07-31T00:39:43;97350.72;;;18.25;54.54
22181;BME280;11256;50.830;12.834;2023-07-31T00:44:43;97354.47;;;18.21;54.98
22181;BME280;11256;50.830;12.834;2023-07-31T00:49:44;97335.03;;;18.14;55.00
22181;BME280;11256;50.830;12.834;2023-07-31T00:54:44;97337.28;;;18.12;55.04
22181;BME280;11256;50.830;12.834;2023-07-31T00:59:45;97334.53;;;18.12;55.17
22181;BME280;11256;50.830;12.834;2023-07-31T01:04:46;97340.03;;;18.12;55.26
22181;BME280;11256;50.830;12.834;2023-07-31T01:10:22;97342.66;;;18.08;55.45
22181;BME280;11256;50.830;12.834;2023-07-31T01:15:23;97341.38;;;18.06;55.39
22181;BME280;11256;50.830;12.834;2023-07-31T01:20:26;97334.41;;;18.08;55.53
22181;BME280;11256;50.830;12.834;2023-07-31T01:25:48;97331.75;;;18.00;55.49
22181;BME280;11256;50.830;12.834;2023-07-31T01:30:49;97325.13;;;18.01;55.54
22181;BME280;11256;50.830;12.834;2023-07-31T01:35:50;97316.91;;;18.01;55.66
22181;BME280;11256;50.830;12.834;2023-07-31T01:40:51;97324.34;;;18.00;55.88
22181;BME280;11256;50.830;12.834;2023-07-31T01:45:53;97328.56;;;17.98;55.82
22181;BME280;11256;50.830;12.834;2023-07-31T01:50:53;97319.84;;;17.96;55.79
22181;BME280;11256;50.830;12.834;2023-07-31T01:55:53;97323.72;;;17.95;55.88
22181;BME280;11256;50.830;12.834;2023-07-31T02:00:54;97325.81;;;17.98;56.01
22181;BME280;11256;50.830;12.834;2023-07-31T02:05:54;97330.94;;;17.99;57.39
22181;BME280;11256;50.830;12.834;2023-07-31T02:10:55;97320.13;;;18.03;57.31
22181;BME280;11256;50.830;12.834;2023-07-31T02:15:56;97322.59;;;17.96;58.19
22181;BME280;11256;50.830;12.834;2023-07-31T02:20:57;97317.44;;;17.94;58.23
22181;BME280;11256;50.830;12.834;2023-07-31T02:25:57;97318.25;;;17.95;58.59
22181;BME280;11256;50.830;12.834;2023-07-31T02:30:58;97316.66;;;17.94;58.97
22181;BME280;11256;50.830;12.834;2023-07-31T02:35:58;97314.13;;;17.89;58.86
22181;BME280;11256;50.830;12.834;2023-07-31T02:40:58;97313.19;;;17.85;59.01
22181;BME280;11256;50.830;12.834;2023-07-31T02:45:59;97291.94;;;17.82;58.91
22181;BME280;11256;50.830;12.834;2023-07-31T02:51:00;97295.78;;;17.81;60.00
22181;BME280;11256;50.830;12.834;2023-07-31T02:56:01;97291.66;;;17.75;60.11
22181;BME280;11256;50.830;12.834;2023-07-31T03:01:01;97295.53;;;17.74;59.85
22181;BME280;11256;50.830;12.834;2023-07-31T03:06:03;97291.84;;;17.70;60.03
22181;BME280;11256;50.830;12.834;2023-07-31T03:11:03;97282.91;;;17.61;60.72
22181;BME280;11256;50.830;12.834;2023-07-31T03:16:03;97295.94;;;17.64;60.73
22181;BME280;11256;50.830;12.834;2023-07-31T03:21:04;97295.03;;;17.60;60.43
22181;BME280;11256;50.830;12.834;2023-07-31T03:26:07;97287.91;;;17.59;60.74
22181;BME280;11256;50.830;12.834;2023-07-31T03:31:07;97292.47;;;17.55;61.15
22181;BME280;11256;50.830;12.834;2023-07-31T03:36:08;97290.06;;;17.53;61.31
22181;BME280;11256;50.830;12.834;2023-07-31T03:41:09;97282.19;;;17.52;61.21
22181;BME280;11256;50.830;12.834;2023-07-31T03:46:10;97277.50;;;17.52;61.42
22181;BME280;11256;50.830;12.834;2023-07-31T03:51:11;97276.25;;;17.50;61.83
22181;BME280;11256;50.830;12.834;2023-07-31T03:56:11;97278.50;;;17.48;62.43
22181;BME280;11256;50.830;12.834;2023-07-31T04:01:12;97273.00;;;17.48;63.07
22181;BME280;11256;50.830;12.834;2023-07-31T04:06:12;97274.84;;;17.44;62.91
22181;BME280;11256;50.830;12.834;2023-07-31T04:11:13;97277.09;;;17.42;62.98
22181;BME280;11256;50.830;12.834;2023-07-31T04:16:13;97264.38;;;17.37;63.88
22181;BME280;11256;50.830;12.834;2023-07-31T04:21:13;97263.09;;;17.35;63.83
22181;BME280;11256;50.830;12.834;2023-07-31T04:26:14;97254.88;;;17.35;63.98
22181;BME280;11256;50.830;12.834;2023-07-31T04:31:14;97253.28;;;17.34;63.96
22181;BME280;11256;50.830;12.834;2023-07-31T04:36:14;97251.00;;;17.36;64.25
22181;BME280;11256;50.830;12.834;2023-07-31T04:41:18;97243.28;;;17.38;64.49
22181;BME280;11256;50.830;12.834;2023-07-31T04:46:21;97232.16;;;17.34;64.88
22181;BME280;11256;50.830;12.834;2023-07-31T04:51:22;97230.56;;;17.33;64.23
22181;BME280;11256;50.830;12.834;2023-07-31T04:56:23;97235.53;;;17.40;64.60
22181;BME280;11256;50.830;12.834;2023-07-31T05:01:23;97222.31;;;17.42;65.18
22181;BME280;11256;50.830;12.834;2023-07-31T05:06:24;97227.00;;;17.41;65.47
22181;BME280;11256;50.830;12.834;2023-07-31T05:11:24;97223.94;;;17.43;65.25
22181;BME280;11256;50.830;12.834;2023-07-31T05:16:24;97209.91;;;17.36;65.05
22181;BME280;11256;50.830;12.834;2023-07-31T05:21:25;97224.06;;;17.46;64.91
22181;BME280;11256;50.830;12.834;2023-07-31T05:26:25;97228.19;;;17.52;64.94
22181;BME280;11256;50.830;12.834;2023-07-31T05:31:26;97225.78;;;17.51;64.79
22181;BME280;11256;50.830;12.834;2023-07-31T05:36:26;97221.88;;;17.52;65.02
22181;BME280;11256;50.830;12.834;2023-07-31T05:41:26;97230.13;;;17.52;64.89
22181;BME280;11256;50.830;12.834;2023-07-31T05:46:27;97227.38;;;17.52;65.49
22181;BME280;11256;50.830;12.834;2023-07-31T05:51:27;97212.28;;;17.46;65.04
22181;BME280;11256;50.830;12.834;2023-07-31T05:56:27;97233.53;;;17.49;65.37
22181;BME280;11256;50.830;12.834;2023-07-31T06:01:28;97226.72;;;17.55;65.50
22181;BME280;11256;50.830;12.834;2023-07-31T06:06:29;97222.38;;;17.54;65.89
22181;BME280;11256;50.830;12.834;2023-07-31T06:11:29;97223.63;;;17.56;66.04
22181;BME280;11256;50.830;12.834;2023-07-31T06:16:29;97220.53;;;17.58;66.05
22181;BME280;11256;50.830;12.834;2023-07-31T06:21:30;97212.81;;;17.60;65.94
22181;BME280;11256;50.830;12.834;2023-07-31T06:26:31;97201.84;;;17.60;66.47
22181;BME280;11256;50.830;12.834;2023-07-31T06:31:31;97204.13;;;17.70;66.25
22181;BME280;11256;50.830;12.834;2023-07-31T06:36:32;97220.03;;;17.76;66.65
22181;BME280;11256;50.830;12.834;2023-07-31T06:41:32;97222.66;;;17.73;66.82
22181;BME280;11256;50.830;12.834;2023-07-31T06:46:35;97214.91;;;17.75;66.48
22181;BME280;11256;50.830;12.834;2023-07-31T06:51:35;97206.34;;;17.76;66.93
22181;BME280;11256;50.830;12.834;2023-07-31T06:56:38;97216.28;;;17.81;66.63
22181;BME280;11256;50.830;12.834;2023-07-31T07:01:38;97221.81;;;17.93;66.98
22181;BME280;11256;50.830;12.834;2023-07-31T07:06:39;97215.66;;;17.96;67.01
22181;BME280;11256;50.830;12.834;2023-07-31T07:11:39;97214.28;;;18.02;68.32
22181;BME280;11256;50.830;12.834;2023-07-31T07:16:40;97218.56;;;18.11;68.23
22181;BME280;11256;50.830;12.834;2023-07-31T07:21:41;97214.09;;;18.19;67.23
22181;BME280;11256;50.830;12.834;2023-07-31T07:26:41;97222.78;;;18.21;67.41
22181;BME280;11256;50.830;12.834;2023-07-31T07:31:41;97234.69;;;18.25;67.19
22181;BME280;11256;50.830;12.834;2023-07-31T07:36:42;97232.63;;;18.22;67.26
22181;BME280;11256;50.830;12.834;2023-07-31T07:41:42;97221.44;;;18.27;66.92
22181;BME280;11256;50.830;12.834;2023-07-31T07:46:43;97224.75;;;18.32;68.16
22181;BME280;11256;50.830;12.834;2023-07-31T07:51:43;97211.63;;;18.38;66.96
22181;BME280;11256;50.830;12.834;2023-07-31T07:56:43;97228.59;;;18.52;66.85
22181;BME280;11256;50.830;12.834;2023-07-31T08:01:44;97218.50;;;18.56;66.86
22181;BME280;11256;50.830;12.834;2023-07-31T08:06:44;97223.53;;;18.66;66.58
22181;BME280;11256;50.830;12.834;2023-07-31T08:11:45;97239.34;;;18.69;66.47
22181;BME280;11256;50.830;12.834;2023-07-31T08:16:45;97229.25;;;18.73;65.98
22181;BME280;11256;50.830;12.834;2023-07-31T08:21:46;97223.19;;;18.67;66.35
22181;BME280;11256;50.830;12.834;2023-07-31T08:26:47;97233.38;;;18.67;65.87
22181;BME280;11256;50.830;12.834;2023-07-31T08:31:47;97245.59;;;18.69;65.90
22181;BME280;11256;50.830;12.834;2023-07-31T08:36:47;97244.22;;;18.75;65.52
22181;BME280;11256;50.830;12.834;2023-07-31T08:41:48;97226.16;;;18.74;65.25
22181;BME280;11256;50.830;12.834;2023-07-31T08:46:49;97230.16;;;18.77;65.28
22181;BME280;11256;50.830;12.834;2023-07-31T08:51:50;97234.28;;;18.83;65.36
22181;BME280;11256;50.830;12.834;2023-07-31T08:56:52;97235.78;;;18.80;65.94
22181;BME280;11256;50.830;12.834;2023-07-31T09:01:54;97224.88;;;18.84;65.41
22181;BME280;11256;50.830;12.834;2023-07-31T09:07:00;97219.53;;;18.87;65.22
22181;BME280;11256;50.830;12.834;2023-07-31T09:12:01;97219.78;;;18.82;65.42
22181;BME280;11256;50.830;12.834;2023-07-31T09:17:02;97218.94;;;18.94;65.29
22181;BME280;11256;50.830;12.834;2023-07-31T09:22:02;97226.16;;;18.98;65.45
22181;BME280;11256;50.830;12.834;2023-07-31T09:27:03;97210.47;;;18.99;65.62
22181;BME280;11256;50.830;12.834;2023-07-31T09:32:04;97216.44;;;19.01;65.23
22181;BME280;11256;50.830;12.834;2023-07-31T09:37:05;97219.38;;;19.08;65.26
22181;BME280;11256;50.830;12.834;2023-07-31T09:42:05;97205.19;;;19.06;66.20
22181;BME280;11256;50.830;12.834;2023-07-31T09:47:06;97197.63;;;19.15;65.29
22181;BME280;11256;50.830;12.834;2023-07-31T09:52:11;97196.34;;;19.24;65.93
22181;BME280;11256;50.830;12.834;2023-07-31T09:57:12;97187.28;;;19.36;65.38
22181;BME280;11256;50.830;12.834;2023-07-31T10:02:15;97191.16;;;19.62;65.77
22181;BME280;11256;50.830;12.834;2023-07-31T10:07:22;97183.06;;;19.81;65.35
22181;BME280;11256;50.830;12.834;2023-07-31T10:12:26;97182.84;;;20.02;64.25
22181;BME280;11256;50.830;12.834;2023-07-31T10:17:29;97173.91;;;20.20;64.35
22181;BME280;11256;50.830;12.834;2023-07-31T10:22:31;97186.25;;;20.42;64.14
22181;BME280;11256;50.830;12.834;2023-07-31T10:27:35;97177.72;;;20.62;64.27
22181;BME280;11256;50.830;12.834;2023-07-31T10:32:38;97174.66;;;20.83;64.41
22181;BME280;11256;50.830;12.834;2023-07-31T10:37:42;97173.41;;;20.96;66.63
22181;BME280;11256;50.830;12.834;2023-07-31T10:42:51;97167.47;;;21.13;68.63
22181;BME280;11256;50.830;12.834;2023-07-31T10:48:00;97156.63;;;21.20;64.99
22181;BME280;11256;50.830;12.834;2023-07-31T10:53:01;97165.78;;;21.43;65.42
22181;BME280;11256;50.830;12.834;2023-07-31T10:58:06;97156.31;;;21.82;65.63
22181;BME280;11256;50.830;12.834;2023-07-31T11:03:13;97153.47;;;22.20;62.96
22181;BME280;11256;50.830;12.834;2023-07-31T11:13:18;97141.56;;;22.61;59.54
22181;BME280;11256;50.830;12.834;2023-07-31T11:18:18;97135.72;;;22.66;59.90
22181;BME280;11256;50.830;12.834;2023-07-31T11:23:19;97137.38;;;22.70;59.49
22181;BME280;11256;50.830;12.834;2023-07-31T11:28:20;97125.56;;;22.73;58.79
22181;BME280;11256;50.830;12.834;2023-07-31T11:33:20;97117.97;;;22.67;58.05
22181;BME280;11256;50.830;12.834;2023-07-31T11:38:22;97114.50;;;22.73;57.66
22181;BME280;11256;50.830;12.834;2023-07-31T11:43:24;97109.63;;;22.93;56.76
22181;BME280;11256;50.830;12.834;2023-07-31T11:48:26;97112.00;;;22.91;56.44
22181;BME280;11256;50.830;12.834;2023-07-31T11:53:28;97111.72;;;22.99;56.36
22181;BME280;11256;50.830;12.834;2023-07-31T11:58:33;97111.75;;;23.03;55.88
22181;BME280;11256;50.830;12.834;2023-07-31T12:03:35;97105.41;;;22.99;55.39
22181;BME280;11256;50.830;12.834;2023-07-31T12:08:38;97089.28;;;23.04;55.31
22181;BME280;11256;50.830;12.834;2023-07-31T12:13:38;97074.31;;;23.09;55.68
22181;BME280;11256;50.830;12.834;2023-07-31T12:18:39;97069.34;;;23.18;55.25
22181;BME280;11256;50.830;12.834;2023-07-31T12:23:39;97074.28;;;23.35;54.88
22181;BME280;11256;50.830;12.834;2023-07-31T12:28:43;97082.06;;;23.59;54.44
22181;BME280;11256;50.830;12.834;2023-07-31T12:33:46;97073.81;;;23.62;53.40
22181;BME280;11256;50.830;12.834;2023-07-31T12:38:47;97065.19;;;23.71;53.26
22181;BME280;11256;50.830;12.834;2023-07-31T12:43:47;97057.78;;;23.82;53.33
22181;BME280;11256;50.830;12.834;2023-07-31T12:48:48;97047.91;;;23.84;52.66
22181;BME280;11256;50.830;12.834;2023-07-31T12:53:48;97032.19;;;23.88;52.83
22181;BME280;11256;50.830;12.834;2023-07-31T12:58:49;97030.59;;;23.91;52.65
22181;BME280;11256;50.830;12.834;2023-07-31T13:03:49;97025.13;;;23.98;53.19
22181;BME280;11256;50.830;12.834;2023-07-31T13:08:50;97032.66;;;24.01;52.81
22181;BME280;11256;50.830;12.834;2023-07-31T13:13:51;97032.38;;;24.13;53.19
22181;BME280;11256;50.830;12.834;2023-07-31T13:18:51;97025.34;;;24.26;52.57
22181;BME280;11256;50.830;12.834;2023-07-31T13:23:53;97022.63;;;24.36;52.70
22181;BME280;11256;50.830;12.834;2023-07-31T13:28:54;97007.31;;;24.53;52.80
22181;BME280;11256;50.830;12.834;2023-07-31T13:33:54;97003.13;;;24.80;52.51
22181;BME280;11256;50.830;12.834;2023-07-31T13:38:55;96993.38;;;25.21;51.68
22181;BME280;11256;50.830;12.834;2023-07-31T13:43:55;96991.88;;;25.41;51.74
22181;BME280;11256;50.830;12.834;2023-07-31T13:48:55;96991.91;;;25.76;50.92
22181;BME280;11256;50.830;12.834;2023-07-31T13:53:56;96980.84;;;26.11;49.40
22181;BME280;11256;50.830;12.834;2023-07-31T13:58:56;96985.63;;;26.00;50.12
22181;BME280;11256;50.830;12.834;2023-07-31T14:03:57;97004.66;;;25.98;50.02
22181;BME280;11256;50.830;12.834;2023-07-31T14:08:57;96990.34;;;25.89;52.13
22181;BME280;11256;50.830;12.834;2023-07-31T14:13:58;96985.16;;;25.73;50.18
22181;BME280;11256;50.830;12.834;2023-07-31T14:18:58;96995.09;;;25.78;47.90
22181;BME280;11256;50.830;12.834;2023-07-31T14:23:59;96977.63;;;25.81;48.09
22181;BME280;11256;50.830;12.834;2023-07-31T14:28:59;96960.19;;;25.87;47.00
22181;BME280;11256;50.830;12.834;2023-07-31T14:34:00;96966.13;;;25.86;47.77
22181;BME280;11256;50.830;12.834;2023-07-31T14:49:43;96984.03;;;26.20;47.96
22181;BME280;11256;50.830;12.834;2023-07-31T14:54:46;96981.25;;;26.20;46.28
22181;BME280;11256;50.830;12.834;2023-07-31T14:59:47;96982.44;;;26.12;47.52
22181;BME280;11256;50.830;12.834;2023-07-31T15:04:47;96994.72;;;25.93;46.91
22181;BME280;11256;50.830;12.834;2023-07-31T15:09:51;96982.78;;;25.86;47.03
22181;BME280;11256;50.830;12.834;2023-07-31T15:14:51;96994.28;;;25.81;47.18
22181;BME280;11256;50.830;12.834;2023-07-31T15:19:52;96967.31;;;25.64;46.64
22181;BME280;11256;50.830;12.834;2023-07-31T15:24:52;96972.88;;;25.53;46.66
22181;BME280;11256;50.830;12.834;2023-07-31T15:29:53;96962.13;;;25.38;46.34
22181;BME280;11256;50.830;12.834;2023-07-31T15:34:53;96944.66;;;25.27;46.89
22181;BME280;11256;50.830;12.834;2023-07-31T15:39:54;96935.53;;;25.19;47.33
22181;BME280;11256;50.830;12.834;2023-07-31T15:44:54;96925.59;;;25.15;47.60
22181;BME280;11256;50.830;12.834;2023-07-31T15:49:55;96930.75;;;25.06;47.66
22181;BME280;11256;50.830;12.834;2023-07-31T15:54:55;96929.94;;;25.09;47.92
22181;BME280;11256;50.830;12.834;2023-07-31T15:59:56;96921.19;;;25.00;47.84
22181;BME280;11256;50.830;12.834;2023-07-31T16:04:56;96926.78;;;25.03;47.98
22181;BME280;11256;50.830;12.834;2023-07-31T16:09:57;96927.53;;;24.93;48.10
22181;BME280;11256;50.830;12.834;2023-07-31T16:15:03;96918.00;;;24.84;48.18
22181;BME280;11256;50.830;12.834;2023-07-31T16:20:06;96914.03;;;24.81;48.17
22181;BME280;11256;50.830;12.834;2023-07-31T16:25:07;96908.44;;;24.71;48.24
22181;BME280;11256;50.830;12.834;2023-07-31T16:30:09;96912.38;;;24.59;48.56
22181;BME280;11256;50.830;12.834;2023-07-31T16:35:09;96907.56;;;24.56;48.65
22181;BME280;11256;50.830;12.834;2023-07-31T16:40:10;96876.63;;;24.44;48.67
22181;BME280;11256;50.830;12.834;2023-07-31T16:45:11;96889.28;;;24.38;48.84
22181;BME280;11256;50.830;12.834;2023-07-31T16:50:12;96890.06;;;24.35;48.67
22181;BME280;11256;50.830;12.834;2023-07-31T16:55:15;96887.66;;;24.30;48.87
22181;BME280;11256;50.830;12.834;2023-07-31T17:00:16;96868.59;;;24.18;48.81
22181;BME280;11256;50.830;12.834;2023-07-31T17:05:16;96875.69;;;24.15;49.41
22181;BME280;11256;50.830;12.834;2023-07-31T17:10:16;96860.63;;;24.06;49.47
22181;BME280;11256;50.830;12.834;2023-07-31T17:15:17;96862.19;;;24.07;49.30
22181;BME280;11256;50.830;12.834;2023-07-31T17:20:17;96853.47;;;23.98;49.76
22181;BME280;11256;50.830;12.834;2023-07-31T17:25:18;96862.16;;;24.00;49.98
22181;BME280;11256;50.830;12.834;2023-07-31T17:30:21;96867.69;;;24.00;50.01
22181;BME280;11256;50.830;12.834;2023-07-31T17:35:21;96870.84;;;23.95;50.28
22181;BME280;11256;50.830;12.834;2023-07-31T17:40:24;96878.38;;;23.94;50.31
22181;BME280;11256;50.830;12.834;2023-07-31T17:45:27;96863.59;;;23.80;50.30
22181;BME280;11256;50.830;12.834;2023-07-31T17:50:29;96873.53;;;23.88;50.63
22181;BME280;11256;50.830;12.834;2023-07-31T17:55:35;96873.06;;;23.75;50.59
22181;BME280;11256;50.830;12.834;2023-07-31T18:00:39;96858.69;;;23.56;50.44
22181;BME280;11256;50.830;12.834;2023-07-31T18:05:40;96874.09;;;23.57;50.69
22181;BME280;11256;50.830;12.834;2023-07-31T18:10:44;96861.41;;;23.49;50.48
22181;BME280;11256;50.830;12.834;2023-07-31T18:15:46;96837.97;;;23.36;50.52
22181;BME280;11256;50.830;12.834;2023-07-31T18:20:46;96868.53;;;23.50;50.61
22181;BME280;11256;50.830;12.834;2023-07-31T18:25:48;96846.63;;;23.31;50.42
22181;BME280;11256;50.830;12.834;2023-07-31T18:30:48;96849.34;;;23.24;50.46
22181;BME280;11256;50.830;12.834;2023-07-31T18:35:49;96850.94;;;23.28;50.60
22181;BME280;11256;50.830;12.834;2023-07-31T18:40:50;96821.97;;;23.12;50.49
22181;BME280;11256;50.830;12.834;2023-07-31T18:45:51;96823.50;;;23.06;50.74
22181;BME280;11256;50.830;12.834;2023-07-31T18:50:51;96833.84;;;23.12;50.75
22181;BME280;11256;50.830;12.834;2023-07-31T18:55:52;96839.31;;;23.09;50.92
22181;BME280;11256;50.830;12.834;2023-07-31T19:00:52;96841.59;;;23.00;51.23
22181;BME280;11256;50.830;12.834;2023-07-31T19:06:01;96836.81;;;22.97;51.13
22181;BME280;11256;50.830;12.834;2023-07-31T19:11:02;96834.41;;;22.92;51.10
22181;BME280;11256;50.830;12.834;2023-07-31T19:16:06;96817.03;;;22.88;51.22
22181;BME280;11256;50.830;12.834;2023-07-31T19:21:06;96818.94;;;22.84;51.18
22181;BME280;11256;50.830;12.834;2023-07-31T19:26:07;96805.81;;;22.74;51.44
22181;BME280;11256;50.830;12.834;2023-07-31T19:31:08;96808.09;;;22.65;51.02
22181;BME280;11256;50.830;12.834;2023-07-31T19:36:08;96796.25;;;22.64;51.69
22181;BME280;11256;50.830;12.834;2023-07-31T19:41:10;96789.09;;;22.60;51.94
22181;BME280;11256;50.830;12.834;2023-07-31T19:46:11;96783.94;;;22.55;51.85
22181;BME280;11256;50.830;12.834;2023-07-31T19:51:14;96785.88;;;22.51;51.88
22181;BME280;11256;50.830;12.834;2023-07-31T19:56:14;96773.22;;;22.50;52.16
22181;BME280;11256;50.830;12.834;2023-07-31T20:01:14;96780.25;;;22.44;52.14
22181;BME280;11256;50.830;12.834;2023-07-31T20:06:18;96777.50;;;22.44;52.03
22181;BME280;11256;50.830;12.834;2023-07-31T20:11:18;96762.72;;;22.29;52.17
22181;BME280;11256;50.830;12.834;2023-07-31T20:16:18;96769.78;;;22.27;52.40
22181;BME280;11256;50.830;12.834;2023-07-31T20:21:19;96750.84;;;22.25;52.57
22181;BME280;11256;50.830;12.834;2023-07-31T20:26:19;96742.09;;;22.20;52.59
22181;BME280;11256;50.830;12.834;2023-07-31T20:31:20;96749.94;;;22.14;52.35
22181;BME280;11256;50.830;12.834;2023-07-31T20:36:21;96752.25;;;22.09;52.59
22181;BME280;11256;50.830;12.834;2023-07-31T20:41:21;96752.25;;;22.09;52.66
22181;BME280;11256;50.830;12.834;2023-07-31T20:46:22;96731.59;;;21.96;52.84
22181;BME280;11256;50.830;12.834;2023-07-31T20:51:22;96714.13;;;21.85;53.16
22181;BME280;11256;50.830;12.834;2023-07-31T20:56:23;96727.16;;;21.88;53.06
22181;BME280;11256;50.830;12.834;2023-07-31T21:01:23;96720.34;;;21.78;53.99
22181;BME280;11256;50.830;12.834;2023-07-31T21:06:24;96713.28;;;21.81;53.88
22181;BME280;11256;50.830;12.834;2023-07-31T21:11:25;96696.44;;;21.60;54.33
22181;BME280;11256;50.830;12.834;2023-07-31T21:16:28;96702.81;;;21.64;54.37
22181;BME280;11256;50.830;12.834;2023-07-31T21:21:28;96700.03;;;21.64;54.45
22181;BME280;11256;50.830;12.834;2023-07-31T21:26:29;96686.19;;;21.57;54.71
22181;BME280;11256;50.830;12.834;2023-07-31T21:31:29;96695.19;;;21.54;55.19
22181;BME280;11256;50.830;12.834;2023-07-31T21:36:30;96688.41;;;21.48;55.12
22181;BME280;11256;50.830;12.834;2023-07-31T21:41:31;96680.56;;;21.50;55.33
22181;BME280;11256;50.830;12.834;2023-07-31T21:46:31;96674.19;;;21.46;55.66
22181;BME280;11256;50.830;12.834;2023-07-31T21:51:32;96678.56;;;21.47;55.69
22181;BME280;11256;50.830;12.834;2023-07-31T21:56:32;96671.72;;;21.37;56.18
22181;BME280;11256;50.830;12.834;2023-07-31T22:01:36;96670.94;;;21.37;55.88
22181;BME280;11256;50.830;12.834;2023-07-31T22:06:39;96663.75;;;21.29;56.63
22181;BME280;11256;50.830;12.834;2023-07-31T22:11:39;96647.13;;;21.22;56.51
22181;BME280;11256;50.830;12.834;2023-07-31T22:16:40;96631.16;;;21.05;56.35
22181;BME280;11256;50.830;12.834;2023-07-31T22:21:40;96633.53;;;21.06;55.88
22181;BME280;11256;50.830;12.834;2023-07-31T22:26:41;96639.00;;;21.03;55.95
22181;BME280;11256;50.830;12.834;2023-07-31T22:31:41;96640.91;;;20.99;56.35
22181;BME280;11256;50.830;12.834;2023-07-31T22:36:42;96634.50;;;20.91;57.83
22181;BME280;11256;50.830;12.834;2023-07-31T22:41:42;96624.66;;;20.90;56.73
22181;BME280;11256;50.830;12.834;2023-07-31T22:46:42;96604.13;;;20.88;57.01
22181;BME280;11256;50.830;12.834;2023-07-31T22:51:43;96576.81;;;20.76;57.80
22181;BME280;11256;50.830;12.834;2023-07-31T22:56:43;96570.13;;;20.77;58.17
22181;BME280;11256;50.830;12.834;2023-07-31T23:01:47;96555.84;;;20.68;58.50
22181;BME280;11256;50.830;12.834;2023-07-31T23:06:47;96562.22;;;20.75;58.82
22181;BME280;11256;50.830;12.834;2023-07-31T23:11:49;96551.91;;;20.69;58.42
22181;BME280;11256;50.830;12.834;2023-07-31T23:16:50;96551.91;;;20.69;59.16
22181;BME280;11256;50.830;12.834;2023-07-31T23:21:50;96534.13;;;20.63;59.78
22181;BME280;11256;50.830;12.834;2023-07-31T23:26:50;96525.06;;;20.59;59.44
22181;BME280;11256;50.830;12.834;2023-07-31T23:31:51;96520.28;;;20.56;60.22
22181;BME280;11256;50.830;12.834;2023-07-31T23:36:51;96502.91;;;20.52;61.20
22181;BME280;11256;50.830;12.834;2023-07-31T23:41:52;96507.59;;;20.48;60.59
22181;BME280;11256;50.830;12.834;2023-07-31T23:46:52;96500.88;;;20.45;60.76
22181;BME280;11256;50.830;12.834;2023-07-31T23:51:53;96496.47;;;20.41;62.39
22181;BME280;11256;50.830;12.834;2023-07-31T23:56:54;96477.13;;;20.34;62.02
